createdAt,value
2019-06-07T03:45:41.665Z,21.23
2019-06-07T03:48:10.384Z,19.42
2019-06-07T03:50:42.007Z,17.57
2019-06-07T03:53:08.998Z,19.23
2019-06-07T03:55:39.079Z,21.62
2019-06-07T04:00:42.761Z,18.90
2019-06-07T04:03:08.344Z,19.07
2019-06-07T04:05:42.791Z,21.82
2019-06-07T04:08:07.455Z,23.00
2019-06-07T04:10:55.630Z,25.20
2019-06-07T04:13:06.471Z,25.32
2019-06-07T04:15:38.356Z,23.32
2019-06-07T04:18:05.670Z,23.43
2019-06-07T04:20:38.038Z,25.27
2019-06-07T04:23:25.066Z,20.80
2019-06-07T04:25:39.344Z,20.48
2019-06-07T04:28:06.084Z,17.37
2019-06-07T04:30:42.484Z,51.00
2019-06-07T04:33:12.017Z,66.00
2019-06-07T04:35:43.079Z,47.67
2019-06-07T04:38:13.063Z,59.40
2019-06-07T04:40:43.183Z,46.68
2019-06-07T04:43:12.340Z,39.95
2019-06-07T04:45:50.323Z,62.25
2019-06-07T04:48:11.381Z,35.95
2019-06-07T04:50:43.503Z,30.57
2019-06-07T04:53:10.236Z,25.85
2019-06-07T04:55:40.302Z,30.17
2019-06-07T04:58:08.843Z,32.10
2019-06-07T05:01:01.363Z,35.00
2019-06-07T05:03:09.529Z,33.47
2019-06-07T05:05:43.093Z,30.00
2019-06-07T05:08:27.060Z,26.57
2019-06-07T05:10:41.310Z,30.53
2019-06-07T05:13:09.129Z,24.80
2019-06-07T05:15:40.211Z,28.77
2019-06-07T05:18:08.241Z,26.00
2019-06-07T05:20:40.143Z,25.37
2019-06-07T05:23:07.044Z,24.40
2019-06-07T05:25:36.447Z,25.43
2019-06-07T05:28:05.645Z,24.30
2019-06-07T05:33:10.659Z,25.07
2019-06-07T05:35:41.743Z,24.80
2019-06-07T05:38:09.995Z,27.13
2019-06-07T05:40:47.685Z,23.50
2019-06-07T05:43:24.675Z,24.53
2019-06-07T05:45:53.344Z,22.70
2019-06-07T05:48:21.921Z,23.70
2019-06-07T05:50:56.864Z,25.70
2019-06-07T05:53:20.595Z,24.83
2019-06-07T05:55:49.021Z,26.87
2019-06-07T05:58:17.508Z,24.07
2019-06-07T06:00:47.530Z,27.87
2019-06-07T06:03:19.339Z,24.40
2019-06-07T06:05:54.633Z,22.43
2019-06-07T06:08:18.009Z,27.93
2019-06-07T06:10:48.634Z,23.97
2019-06-07T06:13:16.703Z,24.10
2019-06-07T06:15:58.526Z,22.60
2019-06-07T06:18:15.800Z,29.57
2019-06-07T06:23:14.459Z,26.43
2019-06-07T06:25:50.896Z,26.10
2019-06-07T06:28:15.701Z,21.33
2019-06-07T06:30:47.009Z,23.70
2019-06-07T06:33:30.811Z,20.97
2019-06-07T06:35:48.026Z,19.60
2019-06-07T06:38:14.646Z,23.67
2019-06-07T06:40:46.525Z,22.60
2019-06-07T06:43:13.465Z,19.57
2019-06-07T06:45:42.947Z,19.30
2019-06-07T06:48:12.219Z,23.23
2019-06-07T06:50:41.091Z,22.40
2019-06-07T06:53:09.676Z,21.83
2019-06-07T06:55:39.108Z,25.03
2019-06-07T06:58:07.669Z,21.93
2019-06-07T07:01:04.349Z,23.47
2019-06-07T07:03:54.192Z,18.30
2019-06-07T07:05:54.762Z,23.70
2019-06-07T07:08:22.433Z,24.30
2019-06-07T07:10:53.066Z,22.40
2019-06-07T07:13:21.159Z,20.23
2019-06-07T07:15:55.130Z,20.57
2019-06-07T07:18:19.928Z,18.10
2019-06-07T07:20:50.441Z,19.10
2019-06-07T07:23:18.660Z,17.97
2019-06-07T07:25:55.376Z,19.80
2019-06-07T07:28:17.281Z,21.20
2019-06-07T07:30:56.388Z,21.27
2019-06-07T07:33:21.991Z,19.53
2019-06-07T07:36:18.137Z,22.40
2019-06-07T07:38:21.640Z,21.10
2019-06-07T07:41:12.253Z,23.40
2019-06-07T07:43:20.290Z,19.53
2019-06-07T07:45:54.690Z,26.00
2019-06-07T07:48:19.022Z,22.07
2019-06-07T07:50:49.641Z,27.47
2019-06-07T07:53:17.648Z,20.70
2019-06-07T07:55:50.406Z,19.57
2019-06-07T07:58:16.437Z,22.70
2019-06-07T08:01:00.145Z,21.80
2019-06-07T08:03:15.176Z,20.37
2019-06-07T08:05:45.608Z,19.03
2019-06-07T08:08:13.772Z,20.43
2019-06-07T08:10:43.175Z,22.43
2019-06-07T08:13:24.726Z,24.40
2019-06-07T08:15:41.796Z,18.60
2019-06-07T08:18:10.624Z,20.80
2019-06-07T08:20:39.069Z,19.40
2019-06-07T08:23:07.592Z,20.83
2019-06-07T08:25:36.038Z,18.73
2019-06-07T08:28:04.680Z,20.70
2019-06-07T08:30:53.230Z,19.77
2019-06-07T08:33:24.753Z,17.10
2019-06-07T08:40:33.956Z,17.20
2019-06-07T08:43:18.211Z,17.40
2019-06-07T08:45:32.628Z,17.80
2019-06-07T08:48:07.452Z,17.90
2019-06-07T08:50:31.464Z,15.90
2019-06-07T08:53:11.300Z,16.40
2019-06-07T08:55:30.082Z,17.43
2019-06-07T08:58:05.790Z,18.23
2019-06-07T09:00:45.652Z,17.80
2019-06-07T09:03:05.020Z,17.93
2019-06-07T09:05:30.049Z,16.73
2019-06-07T09:08:21.098Z,16.43
2019-06-07T09:10:29.239Z,17.93
2019-06-07T09:13:02.986Z,17.43
2019-06-07T09:15:27.866Z,17.53
2019-06-07T09:18:34.961Z,16.73
2019-06-07T09:20:36.957Z,16.60
2019-06-07T09:23:07.180Z,13.50
2019-06-07T09:25:29.956Z,14.67
2019-06-07T09:27:59.201Z,18.00
2019-06-07T09:30:37.775Z,18.40
2019-06-07T09:33:07.041Z,18.83
2019-06-07T09:35:36.614Z,14.60
2019-06-07T09:38:18.206Z,17.50
2019-06-07T09:40:35.427Z,14.90
2019-06-07T09:43:59.062Z,15.43
2019-06-07T09:45:34.864Z,14.57
2019-06-07T09:48:11.617Z,15.90
2019-06-07T09:50:33.535Z,16.87
2019-06-07T09:53:10.619Z,16.50
2019-06-07T09:55:32.129Z,20.50
2019-06-07T09:58:06.183Z,15.13
2019-06-07T10:00:40.513Z,15.00
2019-06-07T10:03:09.487Z,17.50
2019-06-07T10:05:32.056Z,14.13
2019-06-07T10:08:22.566Z,14.57
2019-06-07T10:12:59.562Z,14.23
2019-06-07T10:15:28.149Z,14.63
2019-06-07T10:17:56.607Z,13.10
2019-06-07T10:20:25.376Z,15.97
2019-06-07T10:22:53.912Z,14.97
2019-06-07T10:25:22.341Z,13.10
2019-06-07T10:27:50.776Z,16.90
2019-06-07T10:30:19.443Z,13.47
2019-06-07T10:32:51.942Z,15.43
2019-06-07T10:35:18.176Z,14.53
2019-06-07T10:37:46.632Z,14.50
2019-06-07T10:40:15.219Z,13.53
2019-06-07T10:42:43.652Z,10.80
2019-06-07T10:45:12.925Z,11.53
2019-06-07T10:47:41.432Z,12.90
2019-06-07T10:50:12.219Z,12.03
2019-06-07T10:52:40.815Z,11.43
2019-06-07T10:55:10.629Z,11.33
2019-06-07T10:57:40.345Z,11.13
2019-06-07T11:00:11.519Z,15.50
2019-06-07T11:02:40.250Z,11.37
2019-06-07T11:05:10.229Z,11.60
2019-06-07T11:07:38.738Z,10.47
2019-06-07T11:10:13.310Z,10.77
2019-06-07T11:12:38.065Z,9.57
2019-06-07T11:15:08.806Z,10.80
2019-06-07T11:17:37.719Z,10.00
2019-06-07T11:20:10.409Z,9.07
2019-06-07T11:22:39.130Z,8.37
2019-06-07T11:25:09.753Z,9.63
2019-06-07T11:27:39.482Z,11.40
2019-06-07T11:30:10.356Z,10.50
2019-06-07T11:32:39.072Z,12.30
2019-06-07T11:35:08.520Z,10.60
2019-06-07T11:37:37.361Z,9.87
2019-06-07T11:40:28.043Z,10.17
2019-06-07T11:42:40.414Z,8.70
2019-06-07T11:45:10.528Z,7.33
2019-06-07T11:47:39.880Z,9.73
2019-06-07T11:50:09.466Z,8.40
2019-06-07T11:52:39.246Z,7.87
2019-06-07T11:55:11.357Z,8.33
2019-06-07T11:57:40.096Z,10.87
2019-06-07T12:00:16.478Z,9.47
2019-06-07T12:02:45.285Z,7.90
2019-06-07T12:05:17.211Z,8.33
2019-06-07T12:07:44.477Z,19.77
2019-06-07T12:10:15.601Z,6.03
2019-06-07T12:12:44.165Z,5.50
2019-06-07T12:15:14.865Z,8.20
2019-06-07T12:17:43.748Z,5.17
2019-06-07T12:20:14.727Z,7.33
2019-06-07T12:22:43.201Z,6.50
2019-06-07T12:25:12.893Z,6.10
2019-06-07T12:27:42.385Z,6.73
2019-06-07T12:30:19.498Z,9.30
2019-06-07T12:32:41.446Z,5.03
2019-06-07T12:35:11.501Z,5.17
2019-06-07T12:37:44.430Z,7.47
2019-06-07T12:40:15.582Z,6.50
2019-06-07T12:42:41.171Z,8.77
2019-06-07T12:45:10.129Z,4.07
2019-06-07T12:47:38.609Z,4.37
2019-06-07T12:50:08.492Z,4.73
2019-06-07T12:52:37.368Z,3.43
2019-06-07T12:55:07.365Z,4.57
2019-06-07T12:57:35.850Z,4.77
2019-06-07T13:00:07.542Z,3.80
2019-06-07T13:02:36.028Z,3.33
2019-06-07T13:05:07.004Z,4.77
2019-06-07T13:07:35.419Z,4.03
2019-06-07T13:10:09.211Z,3.83
2019-06-07T13:12:37.754Z,3.60
2019-06-07T13:15:09.327Z,3.40
2019-06-07T13:17:38.020Z,2.70
2019-06-07T13:20:08.092Z,2.67
2019-06-07T13:22:36.712Z,2.83
2019-06-07T13:25:06.529Z,8.43
2019-06-07T13:27:34.952Z,2.93
2019-06-07T13:30:09.536Z,3.70
2019-06-07T13:32:35.269Z,4.83
2019-06-07T13:35:06.107Z,3.00
2019-06-07T13:37:34.584Z,4.63
2019-06-07T13:40:07.065Z,4.53
2019-06-07T13:42:35.677Z,4.07
2019-06-07T13:45:06.890Z,4.57
2019-06-07T13:47:35.329Z,5.83
2019-06-07T13:50:06.303Z,3.73
2019-06-07T13:52:34.754Z,3.07
2019-06-07T13:55:03.655Z,3.70
2019-06-07T13:57:32.107Z,4.13
2019-06-07T14:00:09.692Z,3.23
2019-06-07T14:02:30.749Z,3.77
2019-06-07T14:04:59.223Z,2.87
2019-06-07T14:07:28.613Z,4.20
2019-06-07T14:09:57.914Z,3.10
2019-06-07T14:12:27.499Z,3.03
2019-06-07T14:14:56.239Z,3.00
2019-06-07T14:17:25.299Z,5.67
2019-06-07T14:19:53.842Z,5.90
2019-06-07T14:22:22.705Z,3.20
2019-06-07T14:24:51.527Z,4.10
2019-06-07T14:27:21.308Z,3.87
2019-06-07T14:29:50.886Z,5.03
2019-06-07T14:32:19.383Z,13.93
2019-06-07T14:34:47.834Z,3.40
2019-06-07T14:37:16.268Z,3.43
2019-06-07T14:39:44.700Z,3.60
2019-06-07T14:42:13.161Z,5.50
2019-06-07T14:44:41.597Z,5.90
2019-06-07T14:47:10.091Z,7.40
2019-06-07T14:49:38.587Z,5.07
2019-06-07T14:52:07.131Z,5.43
2019-06-07T14:54:38.904Z,10.40
2019-06-07T14:57:05.805Z,5.50
2019-06-07T14:59:34.921Z,5.13
2019-06-07T15:02:03.498Z,5.87
2019-06-07T15:04:32.906Z,4.00
2019-06-07T15:07:01.425Z,3.80
2019-06-07T15:09:31.034Z,4.80
2019-06-07T15:11:59.874Z,4.43
2019-06-07T15:14:29.292Z,5.57
2019-06-07T15:16:57.985Z,3.63
2019-06-07T15:19:26.757Z,6.10
2019-06-07T15:21:55.340Z,3.33
2019-06-07T15:24:23.787Z,3.27
2019-06-07T15:26:52.333Z,4.43
2019-06-07T15:29:20.755Z,3.40
2019-06-07T15:31:49.177Z,4.20
2019-06-07T15:34:17.604Z,3.80
2019-06-07T15:36:46.113Z,5.10
2019-06-07T15:39:14.579Z,7.43
2019-06-07T15:41:43.013Z,3.77
2019-06-07T15:44:12.358Z,4.40
2019-06-07T15:46:40.833Z,6.97
2019-06-07T15:49:09.275Z,3.70
2019-06-07T15:51:38.650Z,6.03
2019-06-07T15:54:07.425Z,4.47
2019-06-07T15:56:36.885Z,6.27
2019-06-07T15:59:06.404Z,3.77
2019-06-07T16:01:35.527Z,5.13
2019-06-07T16:04:04.721Z,4.73
2019-06-07T16:06:34.293Z,4.10
2019-06-07T16:09:03.190Z,4.67
2019-06-07T16:11:32.745Z,3.33
2019-06-07T16:14:01.432Z,3.67
2019-06-07T16:16:29.868Z,3.80
2019-06-07T16:18:58.367Z,4.30
2019-06-07T16:21:26.938Z,5.87
2019-06-07T16:23:55.529Z,5.30
2019-06-07T16:26:23.963Z,5.00
2019-06-07T16:28:52.487Z,5.30
2019-06-07T16:31:20.926Z,6.20
2019-06-07T16:33:49.348Z,5.97
2019-06-07T16:36:17.845Z,5.90
2019-06-07T16:38:46.288Z,4.10
2019-06-07T16:41:14.724Z,4.80
2019-06-07T16:43:43.180Z,8.30
2019-06-07T16:46:11.608Z,6.50
2019-06-07T16:48:40.830Z,4.20
2019-06-07T16:51:09.481Z,4.00
2019-06-07T16:53:38.272Z,6.40
2019-06-07T16:56:06.827Z,4.83
2019-06-07T16:58:35.300Z,4.50
2019-06-07T17:01:03.995Z,8.20
2019-06-07T17:03:32.435Z,7.40
2019-06-07T17:06:00.922Z,3.83
2019-06-07T17:08:29.370Z,4.30
2019-06-07T17:10:57.851Z,7.33
2019-06-07T17:13:33.255Z,4.43
2019-06-07T17:15:56.467Z,2.57
2019-06-07T17:18:24.891Z,2.60
2019-06-07T17:20:53.320Z,4.07
2019-06-07T17:23:21.747Z,2.70
2019-06-07T17:25:50.172Z,3.23
2019-06-07T17:28:18.665Z,2.90
2019-06-07T17:30:48.174Z,3.73
2019-06-07T17:33:16.904Z,3.67
2019-06-07T17:35:46.467Z,7.07
2019-06-07T17:38:15.071Z,4.17
2019-06-07T17:40:44.870Z,3.30
2019-06-07T17:43:13.515Z,4.97
2019-06-07T17:45:43.281Z,2.53
2019-06-07T17:48:12.071Z,2.80
2019-06-07T17:50:41.616Z,2.97
2019-06-07T17:53:10.304Z,5.27
2019-06-07T17:55:38.769Z,2.80
2019-06-07T17:58:07.211Z,4.73
2019-06-07T18:00:51.020Z,3.37
2019-06-07T18:03:20.415Z,2.10
2019-06-07T18:05:49.502Z,3.60
2019-06-07T18:08:18.212Z,6.50
2019-06-07T18:10:47.832Z,3.27
2019-06-07T18:13:16.575Z,3.50
2019-06-07T18:15:51.647Z,13.17
2019-06-07T18:18:17.737Z,3.47
2019-06-07T18:20:47.231Z,3.90
2019-06-07T18:23:16.363Z,4.60
2019-06-07T18:25:44.829Z,5.97
2019-06-07T18:28:13.378Z,3.63
2019-06-07T18:30:41.862Z,8.87
2019-06-07T18:33:10.315Z,5.73
2019-06-07T18:35:38.799Z,6.93
2019-06-07T18:38:10.599Z,2.97
2019-06-07T18:40:37.457Z,12.57
2019-06-07T18:43:05.909Z,2.17
2019-06-07T18:45:34.343Z,5.40
2019-06-07T18:48:02.881Z,3.57
2019-06-07T18:50:31.335Z,5.47
2019-06-07T18:52:59.799Z,6.17
2019-06-07T18:55:28.312Z,8.23
2019-06-07T18:57:56.850Z,7.37
2019-06-07T19:00:27.068Z,4.27
2019-06-07T19:02:56.098Z,1.57
2019-06-07T19:05:25.344Z,3.97
2019-06-07T19:07:55.094Z,6.90
2019-06-07T19:10:24.078Z,4.73
2019-06-07T19:12:53.158Z,4.43
2019-06-07T19:15:22.754Z,4.23
2019-06-07T19:17:52.160Z,2.80
2019-06-07T19:20:21.289Z,7.43
2019-06-07T19:22:50.161Z,1.30
2019-06-07T19:25:20.042Z,6.93
2019-06-07T19:27:48.556Z,6.00
2019-06-07T19:30:17.609Z,2.93
2019-06-07T19:32:49.368Z,2.03
2019-06-07T19:35:17.822Z,2.10
2019-06-07T19:37:46.355Z,1.80
2019-06-07T19:40:15.677Z,1.37
2019-06-07T19:42:45.367Z,1.63
2019-06-07T19:45:31.603Z,3.73
2019-06-07T19:47:45.814Z,2.50
2019-06-07T19:50:14.976Z,1.37
2019-06-07T19:52:43.413Z,1.27
2019-06-07T19:55:12.339Z,6.40
2019-06-07T19:57:40.779Z,3.03
2019-06-07T20:00:14.046Z,1.67
2019-06-07T20:02:40.464Z,1.53
2019-06-07T20:05:14.325Z,1.03
2019-06-07T20:07:42.971Z,1.70
2019-06-07T20:10:12.409Z,1.40
2019-06-07T20:12:41.307Z,2.87
2019-06-07T20:15:27.948Z,1.60
2019-06-07T20:17:42.136Z,2.30
2019-06-07T20:20:12.136Z,1.30
2019-06-07T20:22:40.786Z,1.30
2019-06-07T20:25:13.622Z,1.67
2019-06-07T20:27:45.575Z,3.47
2019-06-07T20:30:17.718Z,1.60
2019-06-07T20:32:47.935Z,1.53
2019-06-07T20:35:18.186Z,1.83
2019-06-07T20:37:48.205Z,2.13
2019-06-07T20:40:24.367Z,2.93
2019-06-07T20:42:47.034Z,1.53
2019-06-07T20:45:16.043Z,1.33
2019-06-07T20:47:44.558Z,3.63
2019-06-07T20:50:13.109Z,3.43
2019-06-07T20:52:41.646Z,1.60
2019-06-07T20:55:10.272Z,1.80
2019-06-07T20:57:38.784Z,1.90
2019-06-07T21:00:17.319Z,2.10
2019-06-07T21:02:39.890Z,3.63
2019-06-07T21:05:09.807Z,2.70
2019-06-07T21:07:38.594Z,1.80
2019-06-07T21:10:10.853Z,4.83
2019-06-07T21:12:39.686Z,2.63
2019-06-07T21:15:12.853Z,1.73
2019-06-07T21:17:40.182Z,1.60
2019-06-07T21:20:13.618Z,3.00
2019-06-07T21:22:39.805Z,3.37
2019-06-07T21:25:09.466Z,1.57
2019-06-07T21:27:38.362Z,2.87
2019-06-07T21:30:09.625Z,3.20
2019-06-07T21:32:38.242Z,1.63
2019-06-07T21:35:08.487Z,2.63
2019-06-07T21:37:36.932Z,4.93
2019-06-07T21:40:06.409Z,1.30
2019-06-07T21:42:34.846Z,1.97
2019-06-07T21:45:07.297Z,1.67
2019-06-07T21:47:35.022Z,1.77
2019-06-07T21:50:04.959Z,2.00
2019-06-07T21:52:34.000Z,3.47
2019-06-07T21:55:02.898Z,1.77
2019-06-07T21:57:31.641Z,5.07
2019-06-07T22:00:00.179Z,2.33
2019-06-07T22:02:28.830Z,2.60
2019-06-07T22:04:57.401Z,4.50
2019-06-07T22:07:26.047Z,4.27
2019-06-07T22:09:54.666Z,5.13
2019-06-07T22:12:23.330Z,1.87
2019-06-07T22:14:52.017Z,2.40
2019-06-07T22:17:20.664Z,1.70
2019-06-07T22:19:49.163Z,2.87
2019-06-07T22:22:17.625Z,1.57
2019-06-07T22:24:46.073Z,2.67
2019-06-07T22:27:15.567Z,2.60
2019-06-07T22:29:44.238Z,1.03
2019-06-07T22:32:12.989Z,1.63
2019-06-07T22:34:41.799Z,2.03
2019-06-07T22:37:11.276Z,1.83
2019-06-07T22:39:39.832Z,5.30
2019-06-07T22:42:08.801Z,1.57
2019-06-07T22:44:40.052Z,1.60
2019-06-07T22:47:08.000Z,3.27
2019-06-07T22:49:36.634Z,2.60
2019-06-07T22:52:08.665Z,2.20
2019-06-07T22:54:35.281Z,1.73
2019-06-07T22:57:11.986Z,3.60
2019-06-07T22:59:40.635Z,2.40
2019-06-07T23:02:10.350Z,1.70
2019-06-07T23:04:38.912Z,1.93
2019-06-07T23:07:08.717Z,1.50
2019-06-07T23:09:37.376Z,2.60
2019-06-07T23:12:05.808Z,2.60
2019-06-07T23:14:34.238Z,2.10
2019-06-07T23:17:02.704Z,1.90
2019-06-07T23:19:31.192Z,2.20
2019-06-07T23:21:59.629Z,2.37
2019-06-07T23:24:28.082Z,4.20
2019-06-07T23:26:56.503Z,2.03
2019-06-07T23:29:24.932Z,8.37
